createdAt,value
2018-03-11T00:00:36.585Z,21.23
2018-03-11T00:03:02.914Z,20.40
2018-03-11T00:05:29.448Z,20.83
2018-03-11T00:07:56.649Z,21.33
2018-03-11T00:10:23.702Z,19.93
2018-03-11T00:12:49.818Z,21.93
2018-03-11T00:15:16.155Z,22.43
2018-03-11T00:17:42.274Z,22.63
2018-03-11T00:20:08.514Z,22.40
2018-03-11T00:22:34.734Z,21.93
2018-03-11T00:25:00.953Z,19.93
2018-03-11T00:27:27.782Z,21.13
2018-03-11T00:29:53.963Z,19.63
2018-03-11T00:32:21.215Z,18.73
2018-03-11T00:34:47.371Z,18.80
2018-03-11T00:37:14.378Z,20.67
2018-03-11T00:39:41.704Z,20.40
2018-03-11T00:42:07.898Z,20.77
2018-03-11T00:44:34.029Z,20.20
2018-03-11T00:47:00.224Z,20.20
2018-03-11T00:49:26.308Z,20.60
2018-03-11T00:51:52.598Z,20.57
2018-03-11T00:54:19.471Z,23.00
2018-03-11T00:56:45.641Z,19.10
2018-03-11T00:59:11.812Z,20.70
2018-03-11T01:01:38.841Z,19.60
2018-03-11T01:04:06.298Z,21.40
2018-03-11T01:06:33.003Z,19.93
2018-03-11T01:09:00.349Z,28.70
2018-03-11T01:11:26.584Z,31.83
2018-03-11T01:13:52.941Z,33.67
2018-03-11T01:16:19.276Z,37.07
2018-03-11T01:18:46.263Z,35.17
2018-03-11T01:21:12.456Z,31.63
2018-03-11T01:23:39.292Z,24.30
2018-03-11T01:26:05.899Z,22.60
2018-03-11T01:28:32.056Z,22.20
2018-03-11T01:30:58.216Z,20.10
2018-03-11T01:33:24.716Z,21.93
2018-03-11T01:35:51.706Z,21.87
2018-03-11T01:38:18.277Z,20.93
2018-03-11T01:40:44.840Z,21.73
2018-03-11T01:43:12.065Z,21.23
2018-03-11T01:45:38.840Z,19.87
2018-03-11T01:48:05.743Z,21.30
2018-03-11T01:50:31.848Z,18.57
2018-03-11T01:53:08.006Z,19.63
2018-03-11T01:55:34.156Z,19.37
2018-03-11T01:58:07.464Z,19.50
2018-03-11T02:00:33.728Z,18.50
2018-03-11T02:02:59.890Z,17.87
2018-03-11T02:05:26.763Z,19.00
2018-03-11T02:07:53.588Z,19.50
2018-03-11T02:10:20.627Z,18.97
2018-03-11T02:12:47.463Z,21.40
2018-03-11T02:15:13.619Z,21.37
2018-03-11T02:17:40.786Z,19.33
2018-03-11T02:20:06.971Z,22.37
2018-03-11T02:22:33.564Z,20.50
2018-03-11T02:24:59.879Z,20.60
2018-03-11T02:27:26.421Z,21.07
2018-03-11T02:29:53.391Z,20.50
2018-03-11T02:32:20.163Z,20.50
2018-03-11T02:34:46.386Z,21.23
2018-03-11T02:37:12.519Z,21.10
2018-03-11T02:39:38.659Z,20.00
2018-03-11T02:42:04.836Z,21.37
2018-03-11T02:44:30.998Z,21.07
2018-03-11T02:46:57.092Z,19.87
2018-03-11T02:49:23.825Z,18.63
2018-03-11T02:51:49.905Z,20.57
2018-03-11T02:54:16.150Z,21.20
2018-03-11T02:56:42.296Z,20.63
2018-03-11T02:59:08.534Z,21.40
2018-03-11T03:01:34.965Z,20.33
2018-03-11T03:04:01.223Z,18.97
2018-03-11T03:06:27.695Z,18.60
2018-03-11T03:08:53.801Z,19.77
2018-03-11T03:11:21.032Z,20.30
2018-03-11T03:13:47.184Z,19.33
2018-03-11T03:16:13.550Z,21.00
2018-03-11T03:18:40.873Z,18.90
2018-03-11T03:23:40.072Z,23.47
2018-03-11T03:26:06.323Z,20.63
2018-03-11T03:28:32.945Z,21.90
2018-03-11T03:30:59.944Z,19.50
2018-03-11T03:33:26.750Z,22.07
2018-03-11T03:35:59.878Z,20.50
2018-03-11T03:38:26.226Z,18.93
2018-03-11T03:40:52.426Z,20.83
2018-03-11T03:43:18.546Z,19.97
2018-03-11T03:45:44.667Z,21.63
2018-03-11T03:48:11.531Z,19.27
2018-03-11T03:50:37.640Z,20.90
2018-03-11T03:53:04.272Z,19.80
2018-03-11T03:55:30.594Z,20.60
2018-03-11T03:57:57.555Z,21.13
2018-03-11T04:00:24.532Z,20.30
2018-03-11T04:02:51.213Z,21.70
2018-03-11T04:05:17.741Z,20.23
2018-03-11T04:07:44.090Z,19.83
2018-03-11T04:10:10.487Z,19.97
2018-03-11T04:12:36.612Z,20.70
2018-03-11T04:15:02.755Z,22.10
2018-03-11T04:17:29.179Z,22.80
2018-03-11T04:19:55.443Z,21.57
2018-03-11T04:22:22.900Z,21.90
2018-03-11T04:24:49.213Z,19.33
2018-03-11T04:27:15.357Z,20.63
2018-03-11T04:29:41.591Z,22.00
2018-03-11T04:32:07.872Z,22.07
2018-03-11T04:34:34.852Z,20.10
2018-03-11T04:37:01.078Z,23.43
2018-03-11T04:39:28.103Z,22.97
2018-03-11T04:41:54.260Z,21.50
2018-03-11T04:44:21.183Z,21.63
2018-03-11T04:46:47.745Z,21.07
2018-03-11T04:49:14.634Z,20.43
2018-03-11T04:51:40.919Z,21.70
2018-03-11T04:54:07.614Z,20.40
2018-03-11T04:56:33.848Z,21.33
2018-03-11T04:59:00.003Z,20.20
2018-03-11T05:01:27.168Z,20.60
2018-03-11T05:03:54.467Z,21.57
2018-03-11T05:06:20.731Z,20.50
2018-03-11T05:08:46.995Z,20.83
2018-03-11T05:11:13.798Z,20.43
2018-03-11T05:13:40.929Z,20.50
2018-03-11T05:16:07.163Z,20.37
2018-03-11T05:18:33.320Z,20.77
2018-03-11T05:20:59.463Z,21.17
2018-03-11T05:23:25.714Z,20.17
2018-03-11T05:25:51.809Z,21.07
2018-03-11T05:28:18.076Z,20.40
2018-03-11T05:30:44.275Z,22.60
2018-03-11T05:33:10.703Z,21.30
2018-03-11T05:35:37.544Z,21.53
2018-03-11T05:38:04.918Z,21.03
2018-03-11T05:40:31.048Z,20.87
2018-03-11T05:42:57.175Z,21.07
2018-03-11T05:45:24.140Z,19.60
2018-03-11T05:47:50.558Z,20.30
2018-03-11T05:50:16.852Z,19.80
2018-03-11T05:52:42.999Z,19.50
2018-03-11T05:55:09.251Z,19.97
2018-03-11T05:57:36.201Z,21.50
2018-03-11T06:00:02.725Z,18.97
2018-03-11T06:02:29.049Z,19.60
2018-03-11T06:04:55.199Z,19.50
2018-03-11T06:07:21.732Z,18.47
2018-03-11T06:09:48.673Z,18.63
2018-03-11T06:12:15.717Z,18.90
2018-03-11T06:14:41.883Z,19.03
2018-03-11T06:17:08.743Z,19.70
2018-03-11T06:19:35.034Z,18.40
2018-03-11T06:22:01.111Z,18.57
2018-03-11T06:24:28.071Z,19.70
2018-03-11T06:26:54.900Z,18.67
2018-03-11T06:29:21.855Z,18.90
2018-03-11T06:31:49.272Z,19.87
2018-03-11T06:34:16.039Z,19.10
2018-03-11T06:36:42.584Z,18.77
2018-03-11T06:39:08.810Z,19.90
2018-03-11T06:41:34.946Z,18.23
2018-03-11T06:44:02.610Z,19.80
2018-03-11T06:46:28.714Z,19.70
2018-03-11T06:48:54.799Z,19.00
2018-03-11T06:51:21.687Z,18.40
2018-03-11T06:53:49.156Z,17.27
2018-03-11T06:56:15.648Z,18.40
2018-03-11T06:58:41.811Z,18.53
2018-03-11T07:01:08.141Z,18.67
2018-03-11T07:03:34.243Z,16.67
2018-03-11T07:06:01.428Z,18.70
2018-03-11T07:08:27.675Z,18.33
2018-03-11T07:10:54.072Z,18.43
2018-03-11T07:13:20.478Z,17.70
2018-03-11T07:15:47.349Z,17.50
2018-03-11T07:18:13.483Z,17.63
2018-03-11T07:20:39.573Z,17.03
2018-03-11T07:23:05.695Z,17.00
2018-03-11T07:25:31.778Z,18.83
2018-03-11T07:27:57.858Z,17.57
2018-03-11T07:30:23.943Z,17.30
2018-03-11T07:32:51.489Z,18.40
2018-03-11T07:35:17.752Z,19.30
2018-03-11T07:37:44.668Z,45.60
2018-03-11T07:40:10.813Z,33.80
2018-03-11T07:42:37.800Z,17.97
2018-03-11T07:45:03.987Z,18.23
2018-03-11T07:47:30.080Z,17.03
2018-03-11T07:49:56.930Z,15.50
2018-03-11T07:52:23.100Z,26.03
2018-03-11T07:54:50.923Z,17.33
2018-03-11T07:57:18.421Z,18.77
2018-03-11T07:59:44.593Z,21.90
2018-03-11T08:02:11.212Z,17.83
2018-03-11T08:04:38.050Z,21.40
2018-03-11T08:07:04.275Z,15.70
2018-03-11T08:09:31.495Z,22.60
2018-03-11T08:11:57.577Z,16.73
2018-03-11T08:14:24.560Z,16.13
2018-03-11T08:16:50.656Z,16.80
2018-03-11T08:19:16.929Z,15.73
2018-03-11T08:21:43.186Z,21.60
2018-03-11T08:24:09.606Z,16.53
2018-03-11T08:26:36.811Z,27.70
2018-03-11T08:29:02.936Z,15.30
2018-03-11T08:31:29.065Z,15.83
2018-03-11T08:33:55.191Z,14.17
2018-03-11T08:36:21.312Z,14.20
2018-03-11T08:38:47.331Z,14.10
2018-03-11T08:41:13.498Z,15.57
2018-03-11T08:43:40.097Z,14.13
2018-03-11T08:46:06.652Z,14.87
2018-03-11T08:48:32.702Z,17.53
2018-03-11T08:50:58.827Z,28.47
2018-03-11T08:53:25.318Z,19.33
2018-03-11T08:55:51.444Z,15.30
2018-03-11T08:58:17.577Z,14.03
2018-03-11T09:00:45.843Z,13.23
2018-03-11T09:03:13.297Z,13.77
2018-03-11T09:05:40.248Z,14.00
2018-03-11T09:08:06.450Z,14.67
2018-03-11T09:10:33.454Z,15.67
2018-03-11T09:15:32.749Z,12.00
2018-03-11T09:17:59.780Z,10.97
2018-03-11T09:20:25.943Z,12.13
2018-03-11T09:22:52.200Z,10.70
2018-03-11T09:25:18.449Z,11.83
2018-03-11T09:27:45.394Z,11.10
2018-03-11T09:30:12.897Z,11.40
2018-03-11T09:32:39.002Z,11.17
2018-03-11T09:35:05.071Z,10.73
2018-03-11T09:37:31.160Z,10.50
2018-03-11T09:39:58.026Z,11.30
2018-03-11T09:42:24.537Z,9.37
2018-03-11T09:44:51.554Z,14.83
2018-03-11T09:47:17.745Z,8.80
2018-03-11T09:49:44.330Z,8.30
2018-03-11T09:52:10.368Z,8.40
2018-03-11T09:54:38.054Z,8.63
2018-03-11T09:57:04.896Z,8.93
2018-03-11T09:59:31.116Z,8.03
2018-03-11T10:01:57.317Z,7.83
2018-03-11T10:04:23.535Z,8.00
2018-03-11T10:06:49.979Z,8.50
2018-03-11T10:09:16.286Z,8.70
2018-03-11T10:11:43.603Z,8.43
2018-03-11T10:14:10.806Z,9.50
2018-03-11T10:16:37.615Z,10.00
2018-03-11T10:19:03.708Z,9.73
2018-03-11T10:21:30.549Z,10.47
2018-03-11T10:23:56.634Z,9.97
2018-03-11T10:26:22.666Z,10.30
2018-03-11T10:28:48.821Z,10.87
2018-03-11T10:31:15.658Z,10.70
2018-03-11T10:33:42.603Z,10.43
2018-03-11T10:36:08.734Z,12.23
2018-03-11T10:38:34.858Z,10.40
2018-03-11T10:41:01.048Z,9.63
2018-03-11T10:43:27.278Z,8.97
2018-03-11T10:45:53.370Z,8.60
2018-03-11T10:48:19.469Z,9.00
2018-03-11T10:50:46.116Z,8.90
2018-03-11T10:53:12.289Z,8.47
2018-03-11T10:55:38.445Z,8.73
2018-03-11T10:58:04.697Z,8.30
2018-03-11T11:00:37.118Z,7.50
2018-03-11T11:03:09.380Z,7.90
2018-03-11T11:05:36.348Z,8.30
2018-03-11T11:08:03.625Z,8.13
2018-03-11T11:10:31.656Z,8.70
2018-03-11T11:12:58.659Z,7.80
2018-03-11T11:15:24.847Z,8.43
2018-03-11T11:17:51.663Z,8.13
2018-03-11T11:20:17.847Z,7.77
2018-03-11T11:22:44.106Z,8.20
2018-03-11T11:25:10.810Z,8.53
2018-03-11T11:27:36.985Z,8.73
2018-03-11T11:30:03.168Z,8.07
2018-03-11T11:32:29.991Z,8.37
2018-03-11T11:34:57.216Z,8.43
2018-03-11T11:37:23.492Z,8.63
2018-03-11T11:39:49.570Z,7.60
2018-03-11T11:42:16.777Z,8.03
2018-03-11T11:44:43.887Z,7.53
2018-03-11T11:47:10.057Z,9.10
2018-03-11T11:49:36.263Z,9.57
2018-03-11T11:52:02.337Z,9.23
2018-03-11T11:54:31.514Z,8.83
2018-03-11T11:56:58.158Z,9.77
2018-03-11T11:59:24.394Z,8.97
2018-03-11T12:01:51.434Z,9.00
2018-03-11T12:04:17.550Z,8.93
2018-03-11T12:06:46.090Z,9.43
2018-03-11T12:09:12.387Z,8.90
2018-03-11T12:11:38.708Z,8.70
2018-03-11T12:14:04.931Z,8.67
2018-03-11T12:16:31.212Z,8.83
2018-03-11T12:18:59.132Z,8.57
2018-03-11T12:21:32.459Z,8.50
2018-03-11T12:24:07.950Z,8.90
2018-03-11T12:26:41.731Z,8.50
2018-03-11T12:29:14.071Z,9.23
2018-03-11T12:31:57.443Z,8.43
2018-03-11T12:34:27.212Z,8.30
2018-03-11T12:37:02.273Z,8.30
2018-03-11T12:39:41.730Z,10.17
2018-03-11T12:42:11.204Z,9.63
2018-03-11T12:44:38.145Z,8.13
2018-03-11T12:47:04.201Z,8.80
2018-03-11T12:49:30.628Z,8.20
2018-03-11T12:51:57.387Z,8.10
2018-03-11T12:54:23.657Z,8.30
2018-03-11T12:56:50.848Z,7.90
2018-03-11T12:59:17.182Z,8.10
2018-03-11T13:01:43.804Z,8.77
2018-03-11T13:04:12.872Z,8.00
2018-03-11T13:06:39.373Z,8.30
2018-03-11T13:09:05.893Z,7.87
2018-03-11T13:11:34.571Z,8.10
2018-03-11T13:14:00.731Z,7.40
2018-03-11T13:16:28.088Z,6.70
2018-03-11T13:18:57.841Z,7.07
2018-03-11T13:21:26.715Z,6.93
2018-03-11T13:23:57.333Z,8.07
2018-03-11T13:26:26.722Z,6.47
2018-03-11T13:28:54.052Z,6.60
2018-03-11T13:31:21.851Z,7.50
2018-03-11T13:34:05.082Z,6.50
2018-03-11T13:36:34.372Z,6.47
2018-03-11T13:39:15.112Z,5.77
2018-03-11T13:41:41.873Z,7.00
2018-03-11T13:44:09.343Z,6.50
2018-03-11T13:46:48.860Z,7.00
2018-03-11T13:49:15.984Z,6.50
2018-03-11T13:51:55.443Z,5.60
2018-03-11T13:54:21.594Z,5.37
2018-03-11T13:56:48.512Z,5.47
2018-03-11T13:59:14.723Z,5.33
2018-03-11T14:01:41.709Z,4.20
2018-03-11T14:04:07.946Z,4.23
2018-03-11T14:06:34.077Z,4.23
2018-03-11T14:09:01.318Z,4.50
2018-03-11T14:11:27.565Z,3.70
2018-03-11T14:13:54.551Z,3.20
2018-03-11T14:16:21.382Z,3.70
2018-03-11T14:18:48.480Z,2.87
2018-03-11T14:21:14.675Z,2.17
2018-03-11T14:23:42.633Z,3.00
2018-03-11T14:26:10.411Z,2.93
2018-03-11T14:28:37.985Z,3.90
2018-03-11T14:31:04.939Z,2.17
2018-03-11T14:33:32.512Z,2.10
2018-03-11T14:35:58.641Z,1.90
2018-03-11T14:38:25.355Z,1.90
2018-03-11T14:40:51.568Z,1.60
2018-03-11T14:43:17.674Z,1.90
2018-03-11T14:45:43.907Z,1.83
2018-03-11T14:48:11.046Z,1.87
2018-03-11T14:50:37.294Z,1.97
2018-03-11T14:53:04.349Z,1.90
2018-03-11T14:55:30.739Z,2.20
2018-03-11T14:57:57.031Z,1.77
2018-03-11T15:00:24.164Z,1.87
2018-03-11T15:02:53.466Z,1.97
2018-03-11T15:05:19.602Z,2.20
2018-03-11T15:07:46.333Z,1.83
2018-03-11T15:10:15.314Z,1.53
2018-03-11T15:12:42.648Z,2.03
2018-03-11T15:15:09.522Z,1.90
2018-03-11T15:17:35.875Z,1.80
2018-03-11T15:20:02.117Z,1.93
2018-03-11T15:22:28.313Z,1.90
2018-03-11T15:24:54.741Z,1.90
2018-03-11T15:27:21.012Z,1.83
2018-03-11T15:29:47.217Z,2.00
2018-03-11T15:32:14.508Z,2.10
2018-03-11T15:34:41.247Z,2.17
2018-03-11T15:37:08.337Z,2.13
2018-03-11T15:39:34.690Z,2.20
2018-03-11T15:42:01.366Z,2.30
2018-03-11T15:44:28.436Z,2.20
2018-03-11T15:46:57.484Z,2.10
2018-03-11T15:49:25.012Z,2.40
2018-03-11T15:51:51.303Z,2.03
2018-03-11T15:54:17.620Z,2.07
2018-03-11T15:56:43.726Z,2.40
2018-03-11T15:59:09.961Z,2.50
2018-03-11T16:01:36.807Z,2.40
2018-03-11T16:04:04.885Z,2.77
2018-03-11T16:06:31.421Z,2.70
2018-03-11T16:08:57.716Z,2.40
2018-03-11T16:11:24.072Z,2.63
2018-03-11T16:13:50.278Z,2.33
2018-03-11T16:16:16.653Z,2.67
2018-03-11T16:18:43.262Z,2.70
2018-03-11T16:21:09.443Z,2.73
2018-03-11T16:23:36.233Z,2.90
2018-03-11T16:26:02.504Z,2.57
2018-03-11T16:28:28.776Z,2.60
2018-03-11T16:30:55.152Z,2.20
2018-03-11T16:33:21.319Z,2.80
2018-03-11T16:35:47.638Z,2.50
2018-03-11T16:38:13.970Z,2.60
2018-03-11T16:40:40.195Z,2.30
2018-03-11T16:43:07.927Z,2.50
2018-03-11T16:45:34.341Z,2.70
2018-03-11T16:48:00.588Z,2.40
2018-03-11T16:50:27.085Z,2.67
2018-03-11T16:52:54.652Z,2.77
2018-03-11T16:55:21.599Z,2.90
2018-03-11T16:57:47.785Z,2.90
2018-03-11T17:00:14.006Z,2.67
2018-03-11T17:02:47.524Z,3.20
2018-03-11T17:05:13.782Z,3.00
2018-03-11T17:07:40.541Z,2.93
2018-03-11T17:10:06.845Z,3.20
2018-03-11T17:12:33.009Z,3.50
2018-03-11T17:15:00.021Z,3.53
2018-03-11T17:17:26.940Z,3.83
2018-03-11T17:19:54.028Z,3.90
2018-03-11T17:22:20.462Z,3.73
2018-03-11T17:24:46.658Z,4.50
2018-03-11T17:27:13.240Z,5.10
2018-03-11T17:29:42.907Z,4.80
2018-03-11T17:32:09.968Z,5.40
2018-03-11T17:34:36.313Z,5.80
2018-03-11T17:37:02.463Z,4.97
2018-03-11T17:39:29.240Z,5.20
2018-03-11T17:41:55.549Z,5.77
2018-03-11T17:44:21.840Z,5.67
2018-03-11T17:46:50.088Z,5.87
2018-03-11T17:49:17.114Z,6.10
2018-03-11T17:51:43.513Z,6.30
2018-03-11T17:54:10.545Z,6.80
2018-03-11T17:56:36.775Z,7.70
2018-03-11T17:59:05.234Z,6.70
2018-03-11T18:01:32.249Z,6.97
2018-03-11T18:03:58.669Z,16.50
2018-03-11T18:06:25.289Z,21.23
2018-03-11T18:08:52.287Z,8.73
2018-03-11T18:11:20.395Z,7.23
2018-03-11T18:13:54.257Z,14.30
2018-03-11T18:16:26.726Z,10.10
2018-03-11T18:18:54.231Z,46.50
2018-03-11T18:21:21.462Z,22.97
2018-03-11T18:23:47.912Z,12.10
2018-03-11T18:26:15.675Z,7.60
2018-03-11T18:28:43.029Z,9.50
2018-03-11T18:31:10.245Z,84.83
2018-03-11T18:33:37.391Z,32.20
2018-03-11T18:36:05.042Z,13.30
2018-03-11T18:38:31.524Z,12.40
2018-03-11T18:40:59.293Z,9.53
2018-03-11T18:43:25.883Z,10.27
2018-03-11T18:45:53.976Z,11.00
2018-03-11T18:48:20.809Z,11.80
2018-03-11T18:50:47.597Z,17.30
2018-03-11T18:53:14.913Z,73.27
2018-03-11T18:55:43.381Z,16.23
2018-03-11T18:58:10.972Z,13.20
2018-03-11T19:00:37.224Z,12.63
2018-03-11T19:03:03.870Z,13.40
2018-03-11T19:05:31.527Z,13.20
2018-03-11T19:07:59.173Z,12.37
2018-03-11T19:10:27.377Z,12.93
2018-03-11T19:12:53.861Z,11.63
2018-03-11T19:15:22.411Z,11.83
2018-03-11T19:17:48.712Z,12.50
2018-03-11T19:20:15.428Z,12.30
2018-03-11T19:22:41.800Z,11.67
2018-03-11T19:25:08.144Z,12.50
2018-03-11T19:27:34.341Z,12.50
2018-03-11T19:30:01.980Z,10.97
2018-03-11T19:32:31.231Z,11.20
2018-03-11T19:34:58.467Z,11.80
2018-03-11T19:37:24.720Z,11.00
2018-03-11T19:39:50.961Z,10.80
2018-03-11T19:42:17.201Z,10.53
2018-03-11T19:44:43.509Z,12.27
2018-03-11T19:47:09.706Z,11.33
2018-03-11T19:49:35.752Z,11.47
2018-03-11T19:52:01.980Z,11.87
2018-03-11T19:54:32.060Z,13.13
2018-03-11T19:56:58.691Z,11.63
2018-03-11T19:59:24.960Z,13.60
2018-03-11T20:01:51.295Z,12.27
2018-03-11T20:04:17.419Z,15.83
2018-03-11T20:06:43.954Z,15.20
2018-03-11T20:09:11.167Z,15.17
2018-03-11T20:11:37.448Z,14.07
2018-03-11T20:14:05.559Z,18.60
2018-03-11T20:16:32.455Z,14.63
2018-03-11T20:18:59.410Z,33.40
2018-03-11T20:21:25.538Z,14.43
2018-03-11T20:23:52.299Z,12.37
2018-03-11T20:26:18.601Z,12.23
2018-03-11T20:28:44.728Z,12.77
2018-03-11T20:31:10.885Z,11.30
2018-03-11T20:33:37.414Z,11.90
2018-03-11T20:36:03.496Z,11.50
2018-03-11T20:38:30.336Z,12.33
2018-03-11T20:40:57.996Z,11.97
2018-03-11T20:43:24.099Z,13.30
2018-03-11T20:45:50.286Z,12.40
2018-03-11T20:48:16.904Z,12.40
2018-03-11T20:50:44.339Z,16.23
2018-03-11T20:53:11.434Z,11.70
2018-03-11T20:55:38.309Z,11.30
2018-03-11T20:58:06.154Z,13.97
2018-03-11T21:00:33.150Z,11.80
2018-03-11T21:02:59.350Z,12.13
2018-03-11T21:05:25.864Z,12.40
2018-03-11T21:07:52.330Z,11.03
2018-03-11T21:10:19.665Z,11.70
2018-03-11T21:12:45.967Z,13.03
2018-03-11T21:15:12.070Z,12.70
2018-03-11T21:17:39.177Z,13.87
2018-03-11T21:20:05.533Z,14.53
2018-03-11T21:22:32.219Z,12.97
2018-03-11T21:24:59.671Z,15.67
2018-03-11T21:27:25.794Z,15.27
2018-03-11T21:32:25.428Z,17.93
2018-03-11T21:34:51.660Z,23.60
2018-03-11T21:37:18.095Z,26.70
2018-03-11T21:39:45.657Z,26.10
2018-03-11T21:42:12.295Z,24.10
2018-03-11T21:44:39.239Z,24.00
2018-03-11T21:47:05.560Z,22.87
2018-03-11T21:49:31.897Z,22.60
2018-03-11T21:51:58.445Z,22.20
2018-03-11T21:54:25.606Z,28.10
2018-03-11T21:56:51.630Z,22.40
2018-03-11T21:59:18.504Z,17.63
2018-03-11T22:01:44.651Z,24.10
2018-03-11T22:04:10.782Z,29.13
2018-03-11T22:06:37.022Z,21.67
2018-03-11T22:09:03.178Z,18.90
2018-03-11T22:11:30.157Z,18.10
2018-03-11T22:13:56.676Z,21.70
2018-03-11T22:16:22.902Z,25.83
2018-03-11T22:18:49.220Z,21.10
2018-03-11T22:21:15.438Z,26.70
2018-03-11T22:23:42.443Z,20.60
2018-03-11T22:26:08.632Z,20.93
2018-03-11T22:28:34.872Z,16.90
2018-03-11T22:31:01.050Z,14.90
2018-03-11T22:33:27.113Z,15.10
2018-03-11T22:35:53.994Z,17.10
2018-03-11T22:38:20.126Z,19.60
2018-03-11T22:40:46.478Z,37.50
2018-03-11T22:43:12.749Z,23.30
2018-03-11T22:45:39.073Z,17.03
2018-03-11T22:48:05.272Z,14.43
2018-03-11T22:50:31.457Z,16.30
2018-03-11T22:52:59.583Z,13.87
2018-03-11T22:55:26.090Z,14.97
2018-03-11T22:57:52.428Z,14.80
2018-03-11T23:00:18.592Z,15.07
2018-03-11T23:02:44.815Z,13.40
2018-03-11T23:05:10.937Z,13.87
2018-03-11T23:07:37.115Z,13.30
2018-03-11T23:10:03.347Z,13.93
2018-03-11T23:12:31.192Z,14.43
2018-03-11T23:14:57.313Z,13.30
2018-03-11T23:17:23.495Z,13.20
2018-03-11T23:19:49.603Z,15.13
2018-03-11T23:22:15.867Z,14.60
2018-03-11T23:24:43.361Z,16.37
2018-03-11T23:27:10.196Z,15.30
2018-03-11T23:29:37.116Z,14.37
2018-03-11T23:32:03.640Z,14.57
2018-03-11T23:34:29.932Z,15.13
2018-03-11T23:36:56.205Z,14.60
2018-03-11T23:39:22.309Z,15.83
2018-03-11T23:41:48.561Z,14.30
2018-03-11T23:44:15.211Z,14.93
2018-03-11T23:46:41.414Z,14.63
2018-03-11T23:49:07.518Z,16.67
2018-03-11T23:51:33.701Z,14.60
2018-03-11T23:54:02.279Z,15.93
2018-03-11T23:56:28.423Z,16.07
2018-03-11T23:58:54.921Z,14.10
